Time;durP1;ratioP1;P1;durP2;ratioP2;P2;SDS_P1;SDS_P2;PMS_P1;PMS_P2;Temp;Humidity;BMP_temperature;BMP_pressure;BME280_temperature;BME280_humidity;BME280_pressure;Samples;Min_cycle;Max_cycle;Signal;HPM_P1;HPM_P2
2022/10/10 00:01:35;;;;;;;0.00;0.00;;;10.20;99.90;;;;;;5017310;28;20489;-79
2022/10/10 00:04:01;;;;;;;0.00;0.00;;;10.30;99.90;;;;;;5023157;28;20029;-80
2022/10/10 00:06:28;;;;;;;0.00;0.00;;;10.30;99.90;;;;;;5016281;28;20017;-79
2022/10/10 00:08:54;;;;;;;0.00;0.00;;;10.20;99.90;;;;;;5020958;28;20075;-79
2022/10/10 00:11:23;;;;;;;0.00;0.00;;;10.20;99.90;;;;;;5022794;28;20016;-79
2022/10/10 00:13:50;;;;;;;0.00;0.00;;;10.20;99.90;;;;;;5023886;28;20271;-79
2022/10/10 00:16:17;;;;;;;0.00;0.00;;;10.10;99.90;;;;;;5022328;28;20022;-79
2022/10/10 00:18:44;;;;;;;0.10;0.10;;;10.00;99.90;;;;;;5015040;28;20584;-79
2022/10/10 00:21:13;;;;;;;0.00;0.00;;;10.00;99.90;;;;;;5034535;28;20374;-79
2022/10/10 00:23:39;;;;;;;0.00;0.00;;;10.10;99.90;;;;;;5015649;28;20025;-79
2022/10/10 00:26:06;;;;;;;0.00;0.00;;;10.00;99.90;;;;;;5022634;28;20057;-79
2022/10/10 00:28:33;;;;;;;0.00;0.00;;;10.00;99.90;;;;;;5014928;28;20276;-78
2022/10/10 00:31:02;;;;;;;0.00;0.00;;;10.00;99.90;;;;;;5020217;28;20538;-78
2022/10/10 00:33:31;;;;;;;0.00;0.00;;;10.00;99.90;;;;;;5016790;28;20756;-78
2022/10/10 00:35:58;;;;;;;0.52;0.40;;;10.00;99.90;;;;;;5016799;28;20028;-79
2022/10/10 00:38:24;;;;;;;;;;;9.90;99.90;;;;;;5012284;28;20025;-79
2022/10/10 00:40:53;;;;;;;0.00;0.00;;;9.90;99.90;;;;;;5015706;28;19909;-79
2022/10/10 00:43:23;;;;;;;0.10;0.10;;;10.00;99.90;;;;;;5016053;28;20033;-79
2022/10/10 00:45:50;;;;;;;0.00;0.00;;;9.90;99.90;;;;;;5013366;28;20060;-79
2022/10/10 00:48:30;;;;;;;0.00;0.00;;;9.90;99.90;;;;;;5020054;28;20100;-79
2022/10/10 00:51:17;;;;;;;0.00;0.00;;;9.90;99.90;;;;;;5034996;28;20612;-79
2022/10/10 00:53:49;;;;;;;0.00;0.00;;;10.00;99.90;;;;;;5019820;28;20025;-78
2022/10/10 00:56:21;;;;;;;0.00;0.00;;;10.00;99.90;;;;;;5014941;28;20021;-78
2022/10/10 00:58:51;;;;;;;0.00;0.00;;;10.10;99.90;;;;;;5021026;28;20030;-78
2022/10/10 01:01:17;;;;;;;0.00;0.00;;;10.10;99.90;;;;;;5016062;28;20036;-79
2022/10/10 01:03:44;;;;;;;0.03;0.03;;;10.10;99.90;;;;;;5022007;28;20101;-78
2022/10/10 01:06:10;;;;;;;;;;;10.10;99.90;;;;;;5029218;28;20033;-78
2022/10/10 01:08:42;;;;;;;0.00;0.00;;;10.10;99.90;;;;;;5020664;28;19905;-79
2022/10/10 01:11:29;;;;;;;0.00;0.00;;;10.10;99.90;;;;;;5015533;28;20025;-78
2022/10/10 01:14:17;;;;;;;0.00;0.00;;;10.10;99.90;;;;;;5034442;28;20099;-78
2022/10/10 01:16:49;;;;;;;0.00;0.00;;;10.10;99.90;;;;;;5030712;28;20022;-78
2022/10/10 01:19:40;;;;;;;0.00;0.00;;;10.10;99.90;;;;;;5034890;28;20021;-79
2022/10/10 01:22:36;;;;;;;0.00;0.00;;;10.10;99.90;;;;;;5037316;28;20017;-79
2022/10/10 01:25:21;;;;;;;0.00;0.00;;;10.10;99.90;;;;;;5035462;28;20025;-80
2022/10/10 01:28:01;;;;;;;0.00;0.00;;;10.00;99.90;;;;;;5020411;28;20029;-79
2022/10/10 01:30:28;;;;;;;0.00;0.00;;;10.10;99.90;;;;;;5013409;28;20083;-78
2022/10/10 01:33:10;;;;;;;0.00;0.00;;;10.10;99.90;;;;;;5020528;28;20379;-78
2022/10/10 01:35:43;;;;;;;0.00;0.00;;;10.10;99.90;;;;;;5017322;28;20071;-79
2022/10/10 01:38:26;;;;;;;0.00;0.00;;;10.00;99.90;;;;;;5024609;28;20021;-79
2022/10/10 01:41:25;;;;;;;0.00;0.00;;;9.90;99.90;;;;;;5020350;28;20593;-79
2022/10/10 01:43:56;;;;;;;0.10;0.10;;;10.00;99.90;;;;;;5023600;28;20020;-79
2022/10/10 01:46:23;;;;;;;0.00;0.00;;;9.90;99.90;;;;;;5020282;28;20014;-79
2022/10/10 01:48:52;;;;;;;0.00;0.00;;;9.90;99.90;;;;;;5020782;28;20037;-79
2022/10/10 01:52:07;;;;;;;0.00;0.00;;;10.00;99.90;;;;;;5019671;28;20063;-78
2022/10/10 01:54:57;;;;;;;0.00;0.00;;;10.00;99.90;;;;;;4998580;28;20030;-79
2022/10/10 01:57:32;;;;;;;0.00;0.00;;;9.90;99.90;;;;;;5014667;28;20498;-78
2022/10/10 02:00:13;;;;;;;0.00;0.00;;;10.00;99.90;;;;;;5014881;28;20374;-79
2022/10/10 02:03:02;;;;;;;0.00;0.00;;;10.00;99.90;;;;;;5015776;28;20057;-78
2022/10/10 02:05:38;;;;;;;0.00;0.00;;;10.00;99.90;;;;;;5015885;28;20029;-78
2022/10/10 02:08:07;;;;;;;0.30;0.30;;;10.00;99.90;;;;;;5012207;28;20029;-78
2022/10/10 02:10:45;;;;;;;0.22;0.22;;;10.00;99.90;;;;;;5016567;28;20033;-79
2022/10/10 02:13:14;;;;;;;0.00;0.00;;;9.90;99.90;;;;;;5013466;28;20025;-79
2022/10/10 02:15:52;;;;;;;0.00;0.00;;;9.80;99.90;;;;;;5021587;28;20490;-79
2022/10/10 02:18:22;;;;;;;0.00;0.00;;;9.90;99.90;;;;;;5032305;28;20360;-79
2022/10/10 02:20:52;;;;;;;0.00;0.00;;;9.90;99.90;;;;;;5017684;28;20025;-78
2022/10/10 02:23:20;;;;;;;0.00;0.00;;;9.90;99.90;;;;;;5015012;28;20025;-79
2022/10/10 02:25:54;;;;;;;0.00;0.00;;;10.10;99.90;;;;;;5021546;28;20049;-78
2022/10/10 02:28:38;;;;;;;0.00;0.00;;;10.10;99.90;;;;;;5030312;28;20117;-79
2022/10/10 02:31:15;;;;;;;0.25;0.20;;;9.90;99.90;;;;;;5014316;28;20031;-79
2022/10/10 02:33:47;;;;;;;0.00;0.00;;;9.80;99.90;;;;;;5019051;28;20028;-78
2022/10/10 02:36:17;;;;;;;0.00;0.00;;;9.80;99.90;;;;;;5028013;28;20033;-79
2022/10/10 02:38:44;;;;;;;0.00;0.00;;;10.00;99.90;;;;;;5018479;28;20080;-78
2022/10/10 02:41:26;;;;;;;0.00;0.00;;;10.00;99.90;;;;;;5013925;28;20014;-78
2022/10/10 02:44:00;;;;;;;0.17;0.17;;;9.90;99.90;;;;;;5021822;28;20028;-78
2022/10/10 02:46:27;;;;;;;0.00;0.00;;;9.90;99.90;;;;;;5016573;28;20120;-78
2022/10/10 02:48:55;;;;;;;0.00;0.00;;;9.80;99.90;;;;;;5017732;28;20030;-78
2022/10/10 02:51:34;;;;;;;0.00;0.00;;;9.80;99.90;;;;;;5016024;28;20029;-78
2022/10/10 02:54:02;;;;;;;0.00;0.00;;;9.90;99.90;;;;;;5018500;28;20146;-77
2022/10/10 02:56:31;;;;;;;0.00;0.00;;;9.90;99.90;;;;;;5018297;28;20017;-78
2022/10/10 02:59:11;;;;;;;0.00;0.00;;;9.80;99.90;;;;;;5014505;28;20022;-76
2022/10/10 03:01:55;;;;;;;0.00;0.00;;;9.90;99.90;;;;;;5018995;28;20029;-78
2022/10/10 03:11:01;;;;;;;0.00;0.00;;;9.90;99.90;;;;;;5014378;28;20087;-79
2022/10/10 03:14:17;;;;;;;0.00;0.00;;;10.00;99.90;;;;;;5014981;28;20108;-77
2022/10/10 03:16:58;;;;;;;0.00;0.00;;;10.00;99.90;;;;;;5006713;28;20030;-77
2022/10/10 03:19:54;;;;;;;0.10;0.10;;;10.10;99.90;;;;;;5035599;28;20048;-77
2022/10/10 03:22:21;;;;;;;0.00;0.00;;;10.10;99.90;;;;;;5017911;28;20025;-79
2022/10/10 03:24:47;;;;;;;;;;;10.20;99.90;;;;;;5015704;28;20500;-78
2022/10/10 03:27:14;;;;;;;0.00;0.00;;;10.20;99.90;;;;;;5018700;28;19959;-79
2022/10/10 03:33:15;;;;;;;0.00;0.00;;;10.30;99.90;;;;;;5018759;28;21243;-76
2022/10/10 03:35:47;;;;;;;0.00;0.00;;;10.30;99.90;;;;;;4999834;28;20041;-78
2022/10/10 03:38:19;;;;;;;0.00;0.00;;;10.30;99.90;;;;;;5017926;28;20033;-78
2022/10/10 03:41:26;;;;;;;0.00;0.00;;;10.40;99.90;;;;;;5017110;28;20074;-76
2022/10/10 03:44:10;;;;;;;0.00;0.00;;;10.30;99.90;;;;;;5035169;28;20739;-75
2022/10/10 03:46:39;;;;;;;0.00;0.00;;;10.30;99.90;;;;;;5021759;28;20068;-77
2022/10/10 03:49:21;;;;;;;0.00;0.00;;;10.30;99.90;;;;;;5017165;28;20160;-75
2022/10/10 03:57:57;;;;;;;0.00;0.00;;;10.30;99.90;;;;;;5020874;28;20041;-78
2022/10/10 04:00:49;;;;;;;0.00;0.00;;;10.30;99.90;;;;;;5023187;28;20056;-78
2022/10/10 04:03:17;;;;;;;0.00;0.00;;;10.30;99.90;;;;;;5035310;28;20045;-76
2022/10/10 04:05:48;;;;;;;0.25;0.25;;;10.30;99.90;;;;;;5021946;28;20021;-77
2022/10/10 04:12:29;;;;;;;0.00;0.00;;;10.30;99.90;;;;;;4981505;28;20027;-76
2022/10/10 04:15:05;;;;;;;0.00;0.00;;;10.30;99.90;;;;;;4976338;28;20046;-77
2022/10/10 04:17:44;;;;;;;0.00;0.00;;;10.30;99.90;;;;;;4981106;28;20471;-74
2022/10/10 04:20:11;;;;;;;0.00;0.00;;;10.30;99.90;;;;;;4982054;28;20050;-79
2022/10/10 04:22:44;;;;;;;0.00;0.00;;;10.30;99.90;;;;;;4976445;28;20022;-78
2022/10/10 04:25:12;;;;;;;0.00;0.00;;;10.30;99.90;;;;;;4982263;28;20032;-77
2022/10/10 04:27:55;;;;;;;0.00;0.00;;;10.30;99.90;;;;;;5014924;28;20439;-77
2022/10/10 04:30:40;;;;;;;0.00;0.00;;;10.30;99.90;;;;;;5037099;28;20021;-77
2022/10/10 04:33:08;;;;;;;0.00;0.00;;;10.30;99.90;;;;;;5019097;28;20056;-77
2022/10/10 04:35:37;;;;;;;0.00;0.00;;;10.40;99.90;;;;;;5024074;28;20028;-77
2022/10/10 04:38:09;;;;;;;0.00;0.00;;;10.40;99.90;;;;;;5015660;28;20044;-78
2022/10/10 04:40:46;;;;;;;0.00;0.00;;;10.50;99.90;;;;;;5021527;28;20017;-77
2022/10/10 04:43:11;;;;;;;2.30;0.52;;;10.40;99.90;;;;;;5018614;28;20382;-71
2022/10/10 04:45:40;;;;;;;2.97;0.53;;;10.40;99.90;;;;;;5018958;28;20025;-72
2022/10/10 04:48:06;;;;;;;0.00;0.00;;;10.40;99.90;;;;;;5017808;28;20447;-72
2022/10/10 04:50:32;;;;;;;0.13;0.13;;;10.40;99.90;;;;;;5019500;28;20037;-72
2022/10/10 04:53:36;;;;;;;0.00;0.00;;;10.50;99.90;;;;;;5019275;28;20048;-72
2022/10/10 04:56:02;;;;;;;0.00;0.00;;;10.40;99.90;;;;;;5016666;28;20599;-71
2022/10/10 04:58:29;;;;;;;0.03;0.03;;;10.50;99.90;;;;;;5017714;28;20021;-72
2022/10/10 05:00:56;;;;;;;0.00;0.00;;;10.50;99.90;;;;;;5016228;28;20030;-72
2022/10/10 05:03:24;;;;;;;0.00;0.00;;;10.50;99.90;;;;;;5021385;28;20017;-71
2022/10/10 05:05:51;;;;;;;0.10;0.10;;;10.40;99.90;;;;;;5014493;28;20021;-72
2022/10/10 05:08:18;;;;;;;0.00;0.00;;;10.40;99.90;;;;;;5019320;28;20110;-72
2022/10/10 05:10:44;;;;;;;;;;;10.40;99.90;;;;;;5013775;28;20036;-72
2022/10/10 05:13:12;;;;;;;0.00;0.00;;;10.50;99.90;;;;;;5019377;28;19913;-72
2022/10/10 05:15:43;;;;;;;0.00;0.00;;;10.50;99.90;;;;;;5014402;28;20502;-73
2022/10/10 05:18:10;;;;;;;0.00;0.00;;;10.50;99.90;;;;;;5019869;28;20100;-72
2022/10/10 05:20:36;;;;;;;0.00;0.00;;;10.60;99.90;;;;;;5013588;28;20018;-73
2022/10/10 05:23:15;;;;;;;0.00;0.00;;;10.70;99.90;;;;;;5018536;28;20025;-72
2022/10/10 05:25:49;;;;;;;0.00;0.00;;;10.80;99.90;;;;;;5014900;28;20022;-73
2022/10/10 05:28:15;;;;;;;0.00;0.00;;;10.90;99.90;;;;;;5017334;28;20029;-72
2022/10/10 05:30:41;;;;;;;0.00;0.00;;;11.10;99.90;;;;;;5014456;28;20029;-71
2022/10/10 05:33:07;;;;;;;0.00;0.00;;;11.20;99.90;;;;;;5018653;28;20133;-72
2022/10/10 05:35:34;;;;;;;0.00;0.00;;;11.30;99.90;;;;;;5016668;28;20026;-72
2022/10/10 05:38:23;;;;;;;;;;;;;;;;;;;;;
2022/10/10 05:40:49;;;;;;;0.00;0.00;;;11.60;99.90;;;;;;5018937;28;20014;-71
2022/10/10 05:43:14;;;;;;;0.00;0.00;;;11.70;99.90;;;;;;5017507;28;20025;-72
2022/10/10 05:48:45;;;;;;;0.00;0.00;;;12.20;99.90;;;;;;5015559;28;20160;-73
2022/10/10 05:51:12;;;;;;;0.00;0.00;;;12.40;99.90;;;;;;5017670;28;20826;-73
2022/10/10 05:53:39;;;;;;;0.00;0.00;;;12.30;99.90;;;;;;5014963;28;20075;-73
2022/10/10 05:56:05;;;;;;;0.00;0.00;;;12.50;99.90;;;;;;5016355;28;20729;-72
2022/10/10 05:58:31;;;;;;;0.00;0.00;;;12.70;99.90;;;;;;5018147;28;20053;-72
2022/10/10 06:01:02;;;;;;;0.00;0.00;;;12.90;99.90;;;;;;5018155;28;20052;-72
2022/10/10 06:03:35;;;;;;;0.00;0.00;;;13.40;99.90;;;;;;5014680;28;20440;-73
2022/10/10 06:06:01;;;;;;;0.00;0.00;;;13.60;99.90;;;;;;5021064;28;20074;-73
2022/10/10 06:08:29;;;;;;;0.00;0.00;;;14.00;99.90;;;;;;5014734;28;20037;-73
2022/10/10 06:11:02;;;;;;;0.38;0.38;;;14.30;99.90;;;;;;5016396;28;20359;-73
2022/10/10 06:13:27;;;;;;;0.00;0.00;;;14.50;99.90;;;;;;5015328;28;20021;-72
2022/10/10 06:15:53;;;;;;;0.07;0.07;;;14.50;99.90;;;;;;5017039;28;20120;-73
2022/10/10 06:18:21;;;;;;;0.00;0.00;;;14.70;99.90;;;;;;5017833;28;20371;-73
2022/10/10 06:20:47;;;;;;;0.28;0.05;;;15.30;99.60;;;;;;5013339;28;20703;-73
2022/10/10 06:23:12;;;;;;;0.00;0.00;;;15.70;98.60;;;;;;5018019;28;20097;-72
2022/10/10 06:25:39;;;;;;;0.00;0.00;;;15.50;98.20;;;;;;5012565;28;20474;-73
2022/10/10 06:28:05;;;;;;;0.00;0.00;;;15.40;98.40;;;;;;5017519;28;20026;-73
2022/10/10 06:30:33;;;;;;;0.00;0.00;;;15.80;98.10;;;;;;5019036;28;20036;-73
2022/10/10 06:33:00;;;;;;;0.00;0.00;;;16.20;97.20;;;;;;5012246;28;20060;-73
2022/10/10 06:35:28;;;;;;;0.05;0.05;;;16.70;96.70;;;;;;5018963;28;20528;-73
2022/10/10 06:37:54;;;;;;;0.00;0.00;;;17.20;95.50;;;;;;5014206;28;20365;-74
2022/10/10 06:40:19;;;;;;;0.00;0.00;;;17.50;95.60;;;;;;5017385;28;20033;-73
2022/10/10 06:42:45;;;;;;;0.20;0.10;;;18.10;93.60;;;;;;5010674;28;20060;-73
2022/10/10 06:45:12;;;;;;;0.13;0.10;;;18.40;93.40;;;;;;5014987;28;20272;-73
2022/10/10 06:47:38;;;;;;;0.00;0.00;;;19.10;92.80;;;;;;5014324;28;20049;-73
2022/10/10 06:50:05;;;;;;;;;;;19.70;91.10;;;;;;5016616;28;20029;-73
2022/10/10 06:52:31;;;;;;;0.28;0.28;;;19.70;90.30;;;;;;5016110;28;19932;-73
2022/10/10 06:54:57;;;;;;;0.00;0.00;;;20.00;90.10;;;;;;5013525;28;20128;-73
2022/10/10 06:57:24;;;;;;;0.00;0.00;;;19.80;89.30;;;;;;5014541;28;20530;-74
2022/10/10 06:59:50;;;;;;;0.10;0.10;;;19.60;89.50;;;;;;5016281;28;20014;-73
2022/10/10 07:02:18;;;;;;;0.00;0.00;;;19.90;87.70;;;;;;5020722;28;20041;-73
2022/10/10 07:04:44;;;;;;;0.00;0.00;;;19.90;87.80;;;;;;5014263;28;20033;-73
2022/10/10 07:07:09;;;;;;;0.00;0.00;;;19.70;87.00;;;;;;5013946;28;20029;-73
2022/10/10 07:09:35;;;;;;;0.00;0.00;;;20.40;86.20;;;;;;5015702;28;20030;-73
2022/10/10 07:12:02;;;;;;;0.20;0.20;;;20.00;86.50;;;;;;5013727;28;20057;-73
2022/10/10 07:14:27;;;;;;;0.00;0.00;;;20.10;86.60;;;;;;5016953;28;20036;-73
2022/10/10 07:16:53;;;;;;;0.00;0.00;;;20.10;86.30;;;;;;5013401;28;20033;-73
2022/10/10 07:19:20;;;;;;;0.00;0.00;;;20.60;85.20;;;;;;5016393;28;20457;-73
2022/10/10 07:21:46;;;;;;;0.00;0.00;;;20.20;86.00;;;;;;5012595;28;20137;-73
2022/10/10 07:24:12;;;;;;;0.00;0.00;;;19.70;87.50;;;;;;5015658;28;20106;-74
2022/10/10 07:26:38;;;;;;;0.00;0.00;;;20.00;86.10;;;;;;5017326;28;20014;-74
2022/10/10 07:29:07;;;;;;;0.00;0.00;;;20.80;83.50;;;;;;5015496;28;20022;-73
2022/10/10 07:31:32;;;;;;;0.00;0.00;;;20.80;83.20;;;;;;5015630;28;20777;-73
2022/10/10 07:33:59;;;;;;;0.00;0.00;;;20.70;83.50;;;;;;5011322;28;20082;-73
2022/10/10 07:36:25;;;;;;;0.00;0.00;;;20.90;82.60;;;;;;5017948;28;20060;-73
2022/10/10 07:38:53;;;;;;;0.00;0.00;;;21.40;82.30;;;;;;5011804;28;20049;-74
2022/10/10 07:41:19;;;;;;;3.20;0.55;;;22.10;80.60;;;;;;5016744;28;20076;-73
2022/10/10 07:43:45;;;;;;;;;;;21.90;79.50;;;;;;5011707;28;20030;-74
2022/10/10 07:46:16;;;;;;;0.00;0.00;;;21.80;78.90;;;;;;5034053;28;19988;-74
2022/10/10 07:48:43;;;;;;;0.00;0.00;;;21.80;79.30;;;;;;5010555;28;20106;-74
2022/10/10 07:51:09;;;;;;;0.00;0.00;;;22.30;77.50;;;;;;5019795;28;20075;-73
2022/10/10 07:53:35;;;;;;;;;;;21.50;78.70;;;;;;5016731;28;20018;-73
2022/10/10 07:56:04;;;;;;;0.00;0.00;;;21.00;80.00;;;;;;5019224;28;19912;-73
2022/10/10 07:58:29;;;;;;;0.00;0.00;;;21.80;78.70;;;;;;5012524;28;20537;-73
2022/10/10 08:01:07;;;;;;;0.05;0.05;;;22.30;77.80;;;;;;5017317;28;20586;-74
2022/10/10 08:03:33;;;;;;;0.00;0.00;;;23.10;76.40;;;;;;5012599;28;20064;-73
2022/10/10 08:06:02;;;;;;;0.00;0.00;;;23.80;73.70;;;;;;5016770;28;20129;-74
2022/10/10 08:08:27;;;;;;;0.00;0.00;;;24.50;72.70;;;;;;5011146;28;20487;-73
2022/10/10 08:10:53;;;;;;;0.00;0.00;;;24.50;71.00;;;;;;5016921;28;20018;-73
2022/10/10 08:13:19;;;;;;;0.00;0.00;;;24.10;71.30;;;;;;5012698;28;20029;-74
2022/10/10 08:15:44;;;;;;;0.00;0.00;;;23.40;73.10;;;;;;5014809;28;20367;-74
2022/10/10 08:18:10;;;;;;;0.00;0.00;;;23.00;73.20;;;;;;5015390;28;20034;-74
2022/10/10 08:20:36;;;;;;;0.10;0.10;;;21.80;75.70;;;;;;5015741;28;20041;-73
2022/10/10 08:23:02;;;;;;;0.00;0.00;;;21.30;77.30;;;;;;5021031;28;20029;-73
2022/10/10 08:25:29;;;;;;;0.00;0.00;;;22.20;76.60;;;;;;5014588;28;20092;-73
2022/10/10 08:27:55;;;;;;;0.00;0.00;;;22.70;76.10;;;;;;5019313;28;20033;-73
2022/10/10 08:30:22;;;;;;;0.00;0.00;;;22.60;75.00;;;;;;5016202;28;20375;-73
2022/10/10 08:32:48;;;;;;;0.10;0.10;;;22.80;75.20;;;;;;5018389;28;20769;-73
2022/10/10 08:35:14;;;;;;;0.10;0.10;;;22.40;75.00;;;;;;5015986;28;20152;-73
2022/10/10 08:37:41;;;;;;;0.00;0.00;;;21.80;76.50;;;;;;5020049;28;20030;-73
2022/10/10 08:40:07;;;;;;;0.00;0.00;;;22.50;76.70;;;;;;5021318;28;20100;-73
2022/10/10 08:42:38;;;;;;;;;;;22.70;74.70;;;;;;5015091;28;20882;-73
2022/10/10 08:45:12;;;;;;;0.00;0.00;;;23.10;74.10;;;;;;5034499;28;19913;-73
2022/10/10 08:47:40;;;;;;;0.20;0.20;;;25.10;71.40;;;;;;5019066;28;20026;-73
2022/10/10 08:50:20;;;;;;;0.22;0.22;;;25.70;69.40;;;;;;5020292;28;20021;-73
2022/10/10 08:53:08;;;;;;;0.00;0.00;;;24.30;70.60;;;;;;5018057;28;20157;-73
2022/10/10 08:55:42;;;;;;;0.00;0.00;;;23.40;73.40;;;;;;5016451;28;20117;-70
2022/10/10 08:58:22;;;;;;;0.00;0.00;;;24.10;72.00;;;;;;5018050;28;20045;-71
2022/10/10 09:00:55;;;;;;;0.52;0.20;;;24.10;72.30;;;;;;5018019;28;20631;-71
2022/10/10 09:03:34;;;;;;;0.00;0.00;;;25.50;70.10;;;;;;5016133;28;20025;-71
2022/10/10 09:06:15;;;;;;;0.00;0.00;;;24.70;70.10;;;;;;5017432;28;20459;-72
2022/10/10 09:09:14;;;;;;;0.00;0.00;;;25.10;70.50;;;;;;5013950;28;20061;-72
2022/10/10 09:12:10;;;;;;;0.00;0.00;;;26.20;68.30;;;;;;5013056;28;20037;-71
2022/10/10 09:14:47;;;;;;;0.00;0.00;;;25.90;69.10;;;;;;5015457;28;20262;-71
2022/10/10 09:17:38;;;;;;;0.08;0.08;;;25.10;68.50;;;;;;5021699;28;20025;-70
2022/10/10 09:20:15;;;;;;;0.43;0.10;;;26.50;67.70;;;;;;5034321;28;20063;-69
